Svitzer Stanlow — MLNF7 — position and weather

sailwx.info

Track history (hours):
 
Tides and Currents Weather Stations Pressure Air Temp Water Temp Dewpoint Dewpoint Depression Visibility Wind Speed Wind Dir Waves Ship Positions

Svitzer Stanlow

Last reported at 2016-May-31 13:33 UTC. Time now 2016-May-31 14:19 UTC.
Position N 53°26' W 003°01'.

Length 39 m.

Type: Tug. MMSI: 235010620.

Date/timePositionNaut miles runAvg speedWind from/ knotsBaromVisibWave heightAir tempDewpointWater temp
2016-May-31 13:33N 53°26' W 003°01'1 1.0
2016-May-31 12:33N 53°25' W 003°00'0 0.0
2016-May-31 11:30N 53°25' W 003°00'0 0.0
2016-May-31 10:33N 53°25' W 003°00'0 0.0
2016-May-31 09:33N 53°25' W 003°00'0 0.0
2016-May-31 08:30N 53°25' W 003°00'0 0.0
2016-May-31 07:33N 53°25' W 003°00'0 0.0
2016-May-31 06:33N 53°25' W 003°00'3 1.4
2016-May-31 04:32N 53°23' W 002°60'0 0.2
2016-May-31 03:33N 53°23' W 003°00'0 0.0
2016-May-31 02:33N 53°23' W 003°00'0 0.0
2016-May-31 01:31N 53°23' W 002°60'0 0.2
2016-May-31 00:28N 53°23' W 002°60'0 0.0
2016-May-30 23:31N 53°23' W 002°60'0 0.0
2016-May-30 22:31N 53°23' W 002°60'0 0.0
2016-May-30 21:25N 53°23' W 002°60'0 0.0
2016-May-30 20:31N 53°23' W 002°60'0 0.0
2016-May-30 19:31N 53°23' W 002°60'0 0.0
2016-May-30 18:31N 53°23' W 002°60'0 0.0
2016-May-30 17:31N 53°23' W 002°60'0 0.0
2016-May-30 16:31N 53°23' W 002°60'0 0.0
2016-May-30 15:31N 53°23' W 002°60'0 0.0
2016-May-30 14:28N 53°23' W 002°60'0 0.0
2016-May-30 13:31N 53°23' W 002°60'0 0.0
2016-May-30 12:22N 53°23' W 002°60'0 0.0
2016-May-30 11:28N 53°23' W 002°60'0 0.0
2016-May-30 10:32N 53°23' W 002°60'0 0.0
2016-May-30 09:32N 53°23' W 002°60'0 0.0
2016-May-30 08:29N 53°23' W 002°60'0 0.0
2016-May-30 07:32N 53°23' W 002°60'0 0.0
2016-May-30 06:32N 53°23' W 002°60'0 0.0
2016-May-30 05:29N 53°23' W 002°60'0 0.0
2016-May-30 04:31N 53°23' W 002°60'0 0.0
2016-May-30 03:31N 53°23' W 002°60'0 0.0
2016-May-30 02:31N 53°23' W 002°60'0 0.0
2016-May-30 01:28N 53°23' W 002°60'0 0.0
2016-May-30 00:31N 53°23' W 002°60'0 0.0
2016-May-29 23:25N 53°23' W 002°60'0 0.0
2016-May-29 22:28N 53°23' W 002°60'0 0.0
2016-May-29 21:31N 53°23' W 002°60'0 0.0
2016-May-29 20:31N 53°23' W 002°60'0 0.0
2016-May-29 19:31N 53°23' W 002°60'0 0.0
2016-May-29 18:31N 53°23' W 002°60'0 0.0
2016-May-29 17:31N 53°23' W 002°60'1 0.7
2016-May-29 16:29N 53°23' W 003°00'5 5.3
2016-May-29 15:33N 53°28' W 003°03'8 8.3
2016-May-29 14:33N 53°31' W 003°16'5 5.4
2016-May-29 13:33N 53°31' W 003°07'9 9.2
2016-May-29 12:33N 53°23' W 003°00'0 0.0
2016-May-29 11:33N 53°23' W 003°00'0 0.0
2016-May-29 10:33N 53°23' W 003°00'0 0.0
2016-May-29 09:33N 53°23' W 003°00'0 0.0
2016-May-29 08:30N 53°23' W 003°00'0 0.0
2016-May-29 07:33N 53°23' W 003°00'0 0.0
2016-May-29 06:33N 53°23' W 003°00'0 0.0
2016-May-29 05:33N 53°23' W 003°00'0 0.1
2016-May-29 04:32N 53°23' W 002°60'1 1.4
2016-May-29 03:33N 53°24' W 003°00'7 7.3
2016-May-29 02:33N 53°30' W 003°06'7 6.6
2016-May-29 01:33N 53°31' W 003°17'10 9.6
2016-May-29 00:33N 53°28' W 003°03'5 4.8
2016-May-28 23:32N 53°23' W 003°00'0 0.0
2016-May-28 22:32N 53°23' W 003°00'0 0.0
2016-May-28 21:32N 53°23' W 003°00'0 0.0
2016-May-28 20:32N 53°23' W 003°00'0 0.0
2016-May-28 19:32N 53°23' W 003°00'0 0.0
2016-May-28 18:31N 53°23' W 003°00'0 0.0
2016-May-28 17:31N 53°23' W 003°00'0 0.0
2016-May-28 16:31N 53°23' W 003°00'0 0.0
2016-May-28 15:31N 53°23' W 003°00'0 0.0
2016-May-28 14:25N 53°23' W 003°00'0 0.1
2016-May-28 13:29N 53°23' W 002°60'0 0.1
2016-May-28 12:31N 53°23' W 002°60'0 0.0
2016-May-28 11:28N 53°23' W 002°60'0 0.0
2016-May-28 10:28N 53°23' W 002°60'0 0.0
2016-May-28 09:25N 53°23' W 002°60'0 0.0
2016-May-28 08:31N 53°23' W 002°60'0 0.0
2016-May-28 07:31N 53°23' W 002°60'0 0.0
2016-May-28 06:31N 53°23' W 002°60'0 0.0
2016-May-28 05:31N 53°23' W 002°60'0 0.0
2016-May-28 04:28N 53°23' W 002°60'0 0.0
2016-May-28 03:31N 53°23' W 002°60'0 0.0
2016-May-28 02:31N 53°23' W 002°60'0 0.0
2016-May-28 01:31N 53°23' W 002°60'0 0.0
2016-May-28 00:31N 53°23' W 002°60'0 0.0
2016-May-27 23:31N 53°23' W 002°60'0 0.0
2016-May-27 22:31N 53°23' W 002°60'0 0.0
2016-May-27 21:31N 53°23' W 002°60'0 0.0
2016-May-27 20:31N 53°23' W 002°60'0 0.0
2016-May-27 19:31N 53°23' W 002°60'0 0.0
2016-May-27 18:22N 53°23' W 002°60'0 0.0
2016-May-27 17:31N 53°23' W 002°60'0 0.0
2016-May-27 16:31N 53°23' W 002°60'0 0.0
2016-May-27 15:28N 53°23' W 002°60'0 0.0
2016-May-27 14:34N 53°23' W 002°60'0 0.0
2016-May-27 13:33N 53°23' W 002°60'0 0.0
2016-May-27 12:18N 53°23' W 002°60'0 0.0
2016-May-27 11:30N 53°23' W 002°60'0 0.0
2016-May-27 10:33N 53°23' W 002°60'0 0.0
2016-May-27 09:32N 53°23' W 002°60'0 0.0
2016-May-27 08:32N 53°23' W 002°60'0 0.0
2016-May-27 07:32N 53°23' W 002°60'0 0.0
2016-May-27 06:32N 53°23' W 002°60'0 0.0
2016-May-27 05:28N 53°23' W 002°60'0 0.0
2016-May-27 04:31N 53°23' W 002°60'0 0.0
2016-May-27 03:31N 53°23' W 002°60'0 0.0
2016-May-27 02:31N 53°23' W 002°60'0 0.0
2016-May-27 01:31N 53°23' W 002°60'0 0.0
2016-May-27 00:31N 53°23' W 002°60'0 0.0
2016-May-26 23:28N 53°23' W 002°60'0 0.0
2016-May-26 22:31N 53°23' W 002°60'0 0.0
2016-May-26 21:31N 53°23' W 002°60'0 0.0
2016-May-26 20:31N 53°23' W 002°60'0 0.0
2016-May-26 19:31N 53°23' W 002°60'0 0.0
2016-May-26 18:31N 53°23' W 002°60'0 0.0
2016-May-26 17:31N 53°23' W 002°60'0 0.0
2016-May-26 16:31N 53°23' W 002°60'0 0.0
2016-May-26 15:31N 53°23' W 002°60'0 0.0
2016-May-26 14:31N 53°23' W 002°60'2 1.7
2016-May-26 13:33N 53°24' W 003°00'8 8.1
2016-May-26 12:33N 53°31' W 003°07'6 5.7
2016-May-26 11:33N 53°31' W 003°17'9 8.8
2016-May-26 10:33N 53°28' W 003°03'5 5.4
2016-May-26 09:33N 53°23' W 003°00'0 0.0
2016-May-26 08:33N 53°23' W 003°00'0 0.0
2016-May-26 07:33N 53°23' W 003°00'0 0.0
2016-May-26 06:33N 53°23' W 003°00'0 0.0
2016-May-26 05:33N 53°23' W 003°00'0 0.0
2016-May-26 04:27N 53°23' W 003°00'0 0.0
2016-May-26 03:33N 53°23' W 003°00'0 0.0
2016-May-26 02:33N 53°23' W 003°00'0 0.0
2016-May-26 01:29N 53°23' W 003°00'0 0.0
2016-May-26 00:32N 53°23' W 003°00'0 0.0
2016-May-25 23:32N 53°23' W 003°00'0 0.0
2016-May-25 22:29N 53°23' W 003°00'0 0.0
2016-May-25 21:32N 53°23' W 003°00'0 0.2
2016-May-25 20:32N 53°23' W 002°60'0 0.0
2016-May-25 19:29N 53°23' W 002°60'0 0.0
2016-May-25 18:32N 53°23' W 002°60'0 0.0
2016-May-25 17:32N 53°23' W 002°60'0 0.0
2016-May-25 16:29N 53°23' W 002°60'0 0.0
2016-May-25 15:32N 53°23' W 002°60'0 0.0
2016-May-25 14:32N 53°23' W 002°60'0 0.0
2016-May-25 13:32N 53°23' W 002°60'0 0.0
2016-May-25 12:32N 53°23' W 002°60'0 0.0
2016-May-25 11:29N 53°23' W 002°60'0 0.0
2016-May-25 10:29N 53°23' W 002°60'0 0.0
2016-May-25 09:32N 53°23' W 002°60'0 0.0
2016-May-25 08:32N 53°23' W 002°60'0 0.0
2016-May-25 07:29N 53°23' W 002°60'0 0.0
2016-May-25 06:32N 53°23' W 002°60'0 0.0
2016-May-25 05:32N 53°23' W 002°60'0 0.0
2016-May-25 04:32N 53°23' W 002°60'0 0.0
2016-May-25 03:32N 53°23' W 002°60'0 0.0
2016-May-25 02:32N 53°23' W 002°60'0 0.0
2016-May-25 01:26N 53°23' W 002°60'0 0.0
2016-May-25 00:32N 53°23' W 002°60'0 0.0
2016-May-24 23:32N 53°23' W 002°60'0 0.0
2016-May-24 22:31N 53°23' W 002°60'0 0.0
2016-May-24 21:31N 53°23' W 002°60'0 0.0
2016-May-24 20:31N 53°23' W 002°60'0 0.0
2016-May-24 19:28N 53°23' W 002°60'0 0.0
2016-May-24 18:31N 53°23' W 002°60'0 0.0
2016-May-24 17:31N 53°23' W 002°60'0 0.0
2016-May-24 16:31N 53°23' W 002°60'0 0.0
2016-May-24 15:31N 53°23' W 002°60'0 0.0
2016-May-24 14:28N 53°23' W 002°60'0 0.0
2016-May-24 13:33N 53°23' W 002°60'1 0.6
2016-May-24 12:31N 53°23' W 003°00'6 6.3
2016-May-24 11:33N 53°29' W 003°05'7 6.7
2016-May-24 10:33N 53°31' W 003°15'9 9.3
2016-May-24 09:33N 53°27' W 003°01'2 1.4
2016-May-24 08:31N 53°25' W 003°00'0 0.0
2016-May-24 07:28N 53°25' W 003°00'0 0.0
2016-May-24 06:28N 53°25' W 003°00'0 0.0
2016-May-24 05:31N 53°25' W 003°00'0 0.0
2016-May-24 04:31N 53°25' W 003°00'0 0.0
2016-May-24 03:34N 53°25' W 003°00'0 0.0
2016-May-24 02:34N 53°25' W 003°00'0 0.0
2016-May-24 01:33N 53°25' W 003°00'0 0.0
2016-May-24 00:33N 53°25' W 003°00'0 0.0
2016-May-23 23:33N 53°25' W 003°00'0 0.0
2016-May-23 22:33N 53°25' W 003°00'0 0.0
2016-May-23 21:33N 53°25' W 003°00'0 0.0
2016-May-23 20:27N 53°25' W 003°00'0 0.0
2016-May-23 19:33N 53°25' W 003°00'0 0.0
2016-May-23 18:33N 53°25' W 003°00'0 0.0
2016-May-23 17:33N 53°25' W 003°00'0 0.0
2016-May-23 16:30N 53°25' W 003°00'0 0.0
2016-May-23 15:33N 53°25' W 003°00'0 0.0
2016-May-23 14:33N 53°25' W 003°00'0 0.0
2016-May-23 13:30N 53°25' W 003°00'0 0.0
2016-May-23 12:30N 53°25' W 003°00'0 0.0
2016-May-23 11:33N 53°25' W 003°00'0 0.0
2016-May-23 10:33N 53°25' W 003°00'0 0.0
2016-May-23 09:33N 53°25' W 003°00'0 0.0
2016-May-23 08:33N 53°25' W 003°00'0 0.0
2016-May-23 07:33N 53°25' W 003°00'0 0.0
2016-May-23 06:33N 53°25' W 003°00'0 0.0
2016-May-23 05:33N 53°25' W 003°00'0 0.0
2016-May-23 04:33N 53°25' W 003°00'0 0.0
2016-May-23 03:30N 53°25' W 003°00'0 0.0
2016-May-23 02:33N 53°25' W 003°00'0 0.0
2016-May-23 01:33N 53°25' W 003°00'0 0.0
2016-May-23 00:33N 53°25' W 003°00'0 0.0
2016-May-22 23:33N 53°25' W 003°00'0 0.0
2016-May-22 22:33N 53°25' W 003°00'2 1.8
2016-May-22 21:33N 53°27' W 003°01'0 0.5
2016-May-22 20:34N 53°28' W 003°01'2 2.2
2016-May-22 19:32N 53°25' W 003°00'0 0.0
2016-May-22 18:29N 53°25' W 003°00'0 0.0
2016-May-22 17:32N 53°25' W 003°00'0 0.0
2016-May-22 16:32N 53°25' W 003°00'0 0.0
2016-May-22 15:29N 53°25' W 003°00'0 0.0
2016-May-22 14:32N 53°25' W 003°00'0 0.0
2016-May-22 13:31N 53°25' W 003°00'0 0.0
2016-May-22 12:31N 53°25' W 003°00'0 0.0
2016-May-22 11:31N 53°25' W 003°00'1 0.8
2016-May-22 10:31N 53°26' W 003°00'0 0.1
2016-May-22 09:28N 53°26' W 003°01'0 0.5
2016-May-22 08:32N 53°26' W 003°01'3 2.8
2016-May-22 07:33N 53°24' W 003°00'1 0.8
2016-May-22 06:27N 53°23' W 003°00'0 0.0
2016-May-22 05:33N 53°23' W 003°00'0 0.0
2016-May-22 04:30N 53°23' W 003°00'0 0.0
2016-May-22 03:33N 53°23' W 003°00'0 0.0
2016-May-22 02:33N 53°23' W 003°00'0 0.0
2016-May-22 01:33N 53°23' W 003°00'0 0.0
2016-May-22 00:33N 53°23' W 003°00'0 0.0
2016-May-21 23:33N 53°23' W 003°00'0 0.0
2016-May-21 22:33N 53°23' W 003°00'0 0.1
2016-May-21 21:31N 53°23' W 002°60'0 0.1
2016-May-21 20:31N 53°23' W 002°60'0 0.0
2016-May-21 19:31N 53°23' W 002°60'0 0.0
2016-May-21 18:28N 53°23' W 002°60'0 0.0
2016-May-21 17:31N 53°23' W 002°60'0 0.0
2016-May-21 16:31N 53°23' W 002°60'0 0.0
2016-May-21 15:31N 53°23' W 002°60'0 0.0
2016-May-21 14:31N 53°23' W 002°60'  
Track history (hours):
 
Tides and Currents Weather Stations Pressure Air Temp Water Temp Dewpoint Dewpoint Depression Visibility Wind Speed Wind Dir Waves Ship Positions

Svitzer Stanlow

Last reported at 2016-May-31 13:33 UTC. Time now 2016-May-31 14:19 UTC.
Position N 53°26' W 003°01'.

Length 39 m.

Type: Tug. MMSI: 235010620.

Date/timePositionNaut miles runAvg speedWind from/ knotsBaromVisibWave heightAir tempDewpointWater temp
2016-May-31 13:33N 53°26' W 003°01'1 1.0
2016-May-31 12:33N 53°25' W 003°00'0 0.0
2016-May-31 11:30N 53°25' W 003°00'0 0.0
2016-May-31 10:33N 53°25' W 003°00'0 0.0
2016-May-31 09:33N 53°25' W 003°00'0 0.0
2016-May-31 08:30N 53°25' W 003°00'0 0.0
2016-May-31 07:33N 53°25' W 003°00'0 0.0
2016-May-31 06:33N 53°25' W 003°00'3 1.4
2016-May-31 04:32N 53°23' W 002°60'0 0.2
2016-May-31 03:33N 53°23' W 003°00'0 0.0
2016-May-31 02:33N 53°23' W 003°00'0 0.0
2016-May-31 01:31N 53°23' W 002°60'0 0.2
2016-May-31 00:28N 53°23' W 002°60'0 0.0
2016-May-30 23:31N 53°23' W 002°60'0 0.0
2016-May-30 22:31N 53°23' W 002°60'0 0.0
2016-May-30 21:25N 53°23' W 002°60'0 0.0
2016-May-30 20:31N 53°23' W 002°60'0 0.0
2016-May-30 19:31N 53°23' W 002°60'0 0.0
2016-May-30 18:31N 53°23' W 002°60'0 0.0
2016-May-30 17:31N 53°23' W 002°60'0 0.0
2016-May-30 16:31N 53°23' W 002°60'0 0.0
2016-May-30 15:31N 53°23' W 002°60'0 0.0
2016-May-30 14:28N 53°23' W 002°60'0 0.0
2016-May-30 13:31N 53°23' W 002°60'0 0.0
2016-May-30 12:22N 53°23' W 002°60'0 0.0
2016-May-30 11:28N 53°23' W 002°60'0 0.0
2016-May-30 10:32N 53°23' W 002°60'0 0.0
2016-May-30 09:32N 53°23' W 002°60'0 0.0
2016-May-30 08:29N 53°23' W 002°60'0 0.0
2016-May-30 07:32N 53°23' W 002°60'0 0.0
2016-May-30 06:32N 53°23' W 002°60'0 0.0
2016-May-30 05:29N 53°23' W 002°60'0 0.0
2016-May-30 04:31N 53°23' W 002°60'0 0.0
2016-May-30 03:31N 53°23' W 002°60'0 0.0
2016-May-30 02:31N 53°23' W 002°60'0 0.0
2016-May-30 01:28N 53°23' W 002°60'0 0.0
2016-May-30 00:31N 53°23' W 002°60'0 0.0
2016-May-29 23:25N 53°23' W 002°60'0 0.0
2016-May-29 22:28N 53°23' W 002°60'0 0.0
2016-May-29 21:31N 53°23' W 002°60'0 0.0
2016-May-29 20:31N 53°23' W 002°60'0 0.0
2016-May-29 19:31N 53°23' W 002°60'0 0.0
2016-May-29 18:31N 53°23' W 002°60'0 0.0
2016-May-29 17:31N 53°23' W 002°60'1 0.7
2016-May-29 16:29N 53°23' W 003°00'5 5.3
2016-May-29 15:33N 53°28' W 003°03'8 8.3
2016-May-29 14:33N 53°31' W 003°16'5 5.4
2016-May-29 13:33N 53°31' W 003°07'9 9.2
2016-May-29 12:33N 53°23' W 003°00'0 0.0
2016-May-29 11:33N 53°23' W 003°00'0 0.0
2016-May-29 10:33N 53°23' W 003°00'0 0.0
2016-May-29 09:33N 53°23' W 003°00'0 0.0
2016-May-29 08:30N 53°23' W 003°00'0 0.0
2016-May-29 07:33N 53°23' W 003°00'0 0.0
2016-May-29 06:33N 53°23' W 003°00'0 0.0
2016-May-29 05:33N 53°23' W 003°00'0 0.1
2016-May-29 04:32N 53°23' W 002°60'1 1.4
2016-May-29 03:33N 53°24' W 003°00'7 7.3
2016-May-29 02:33N 53°30' W 003°06'7 6.6
2016-May-29 01:33N 53°31' W 003°17'10 9.6
2016-May-29 00:33N 53°28' W 003°03'5 4.8
2016-May-28 23:32N 53°23' W 003°00'0 0.0
2016-May-28 22:32N 53°23' W 003°00'0 0.0
2016-May-28 21:32N 53°23' W 003°00'0 0.0
2016-May-28 20:32N 53°23' W 003°00'0 0.0
2016-May-28 19:32N 53°23' W 003°00'0 0.0
2016-May-28 18:31N 53°23' W 003°00'0 0.0
2016-May-28 17:31N 53°23' W 003°00'0 0.0
2016-May-28 16:31N 53°23' W 003°00'0 0.0
2016-May-28 15:31N 53°23' W 003°00'0 0.0
2016-May-28 14:25N 53°23' W 003°00'0 0.1
2016-May-28 13:29N 53°23' W 002°60'0 0.1
2016-May-28 12:31N 53°23' W 002°60'0 0.0
2016-May-28 11:28N 53°23' W 002°60'0 0.0
2016-May-28 10:28N 53°23' W 002°60'0 0.0
2016-May-28 09:25N 53°23' W 002°60'0 0.0
2016-May-28 08:31N 53°23' W 002°60'0 0.0
2016-May-28 07:31N 53°23' W 002°60'0 0.0
2016-May-28 06:31N 53°23' W 002°60'0 0.0
2016-May-28 05:31N 53°23' W 002°60'0 0.0
2016-May-28 04:28N 53°23' W 002°60'0 0.0
2016-May-28 03:31N 53°23' W 002°60'0 0.0
2016-May-28 02:31N 53°23' W 002°60'0 0.0
2016-May-28 01:31N 53°23' W 002°60'0 0.0
2016-May-28 00:31N 53°23' W 002°60'0 0.0
2016-May-27 23:31N 53°23' W 002°60'0 0.0
2016-May-27 22:31N 53°23' W 002°60'0 0.0
2016-May-27 21:31N 53°23' W 002°60'0 0.0
2016-May-27 20:31N 53°23' W 002°60'0 0.0
2016-May-27 19:31N 53°23' W 002°60'0 0.0
2016-May-27 18:22N 53°23' W 002°60'0 0.0
2016-May-27 17:31N 53°23' W 002°60'0 0.0
2016-May-27 16:31N 53°23' W 002°60'0 0.0
2016-May-27 15:28N 53°23' W 002°60'0 0.0
2016-May-27 14:34N 53°23' W 002°60'0 0.0
2016-May-27 13:33N 53°23' W 002°60'0 0.0
2016-May-27 12:18N 53°23' W 002°60'0 0.0
2016-May-27 11:30N 53°23' W 002°60'0 0.0
2016-May-27 10:33N 53°23' W 002°60'0 0.0
2016-May-27 09:32N 53°23' W 002°60'0 0.0
2016-May-27 08:32N 53°23' W 002°60'0 0.0
2016-May-27 07:32N 53°23' W 002°60'0 0.0
2016-May-27 06:32N 53°23' W 002°60'0 0.0
2016-May-27 05:28N 53°23' W 002°60'0 0.0
2016-May-27 04:31N 53°23' W 002°60'0 0.0
2016-May-27 03:31N 53°23' W 002°60'0 0.0
2016-May-27 02:31N 53°23' W 002°60'0 0.0
2016-May-27 01:31N 53°23' W 002°60'0 0.0
2016-May-27 00:31N 53°23' W 002°60'0 0.0
2016-May-26 23:28N 53°23' W 002°60'0 0.0
2016-May-26 22:31N 53°23' W 002°60'0 0.0
2016-May-26 21:31N 53°23' W 002°60'0 0.0
2016-May-26 20:31N 53°23' W 002°60'0 0.0
2016-May-26 19:31N 53°23' W 002°60'0 0.0
2016-May-26 18:31N 53°23' W 002°60'0 0.0
2016-May-26 17:31N 53°23' W 002°60'0 0.0
2016-May-26 16:31N 53°23' W 002°60'0 0.0
2016-May-26 15:31N 53°23' W 002°60'0 0.0
2016-May-26 14:31N 53°23' W 002°60'2 1.7
2016-May-26 13:33N 53°24' W 003°00'8 8.1
2016-May-26 12:33N 53°31' W 003°07'6 5.7
2016-May-26 11:33N 53°31' W 003°17'9 8.8
2016-May-26 10:33N 53°28' W 003°03'5 5.4
2016-May-26 09:33N 53°23' W 003°00'0 0.0
2016-May-26 08:33N 53°23' W 003°00'0 0.0
2016-May-26 07:33N 53°23' W 003°00'0 0.0
2016-May-26 06:33N 53°23' W 003°00'0 0.0
2016-May-26 05:33N 53°23' W 003°00'0 0.0
2016-May-26 04:27N 53°23' W 003°00'0 0.0
2016-May-26 03:33N 53°23' W 003°00'0 0.0
2016-May-26 02:33N 53°23' W 003°00'0 0.0
2016-May-26 01:29N 53°23' W 003°00'0 0.0
2016-May-26 00:32N 53°23' W 003°00'0 0.0
2016-May-25 23:32N 53°23' W 003°00'0 0.0
2016-May-25 22:29N 53°23' W 003°00'0 0.0
2016-May-25 21:32N 53°23' W 003°00'0 0.2
2016-May-25 20:32N 53°23' W 002°60'0 0.0
2016-May-25 19:29N 53°23' W 002°60'0 0.0
2016-May-25 18:32N 53°23' W 002°60'0 0.0
2016-May-25 17:32N 53°23' W 002°60'0 0.0
2016-May-25 16:29N 53°23' W 002°60'0 0.0
2016-May-25 15:32N 53°23' W 002°60'0 0.0
2016-May-25 14:32N 53°23' W 002°60'0 0.0
2016-May-25 13:32N 53°23' W 002°60'0 0.0
2016-May-25 12:32N 53°23' W 002°60'0 0.0
2016-May-25 11:29N 53°23' W 002°60'0 0.0
2016-May-25 10:29N 53°23' W 002°60'0 0.0
2016-May-25 09:32N 53°23' W 002°60'0 0.0
2016-May-25 08:32N 53°23' W 002°60'0 0.0
2016-May-25 07:29N 53°23' W 002°60'0 0.0
2016-May-25 06:32N 53°23' W 002°60'0 0.0
2016-May-25 05:32N 53°23' W 002°60'0 0.0
2016-May-25 04:32N 53°23' W 002°60'0 0.0
2016-May-25 03:32N 53°23' W 002°60'0 0.0
2016-May-25 02:32N 53°23' W 002°60'0 0.0
2016-May-25 01:26N 53°23' W 002°60'0 0.0
2016-May-25 00:32N 53°23' W 002°60'0 0.0
2016-May-24 23:32N 53°23' W 002°60'0 0.0
2016-May-24 22:31N 53°23' W 002°60'0 0.0
2016-May-24 21:31N 53°23' W 002°60'0 0.0
2016-May-24 20:31N 53°23' W 002°60'0 0.0
2016-May-24 19:28N 53°23' W 002°60'0 0.0
2016-May-24 18:31N 53°23' W 002°60'0 0.0
2016-May-24 17:31N 53°23' W 002°60'0 0.0
2016-May-24 16:31N 53°23' W 002°60'0 0.0
2016-May-24 15:31N 53°23' W 002°60'0 0.0
2016-May-24 14:28N 53°23' W 002°60'0 0.0
2016-May-24 13:33N 53°23' W 002°60'1 0.6
2016-May-24 12:31N 53°23' W 003°00'6 6.3
2016-May-24 11:33N 53°29' W 003°05'7 6.7
2016-May-24 10:33N 53°31' W 003°15'9 9.3
2016-May-24 09:33N 53°27' W 003°01'2 1.4
2016-May-24 08:31N 53°25' W 003°00'0 0.0
2016-May-24 07:28N 53°25' W 003°00'0 0.0
2016-May-24 06:28N 53°25' W 003°00'0 0.0
2016-May-24 05:31N 53°25' W 003°00'0 0.0
2016-May-24 04:31N 53°25' W 003°00'0 0.0
2016-May-24 03:34N 53°25' W 003°00'0 0.0
2016-May-24 02:34N 53°25' W 003°00'0 0.0
2016-May-24 01:33N 53°25' W 003°00'0 0.0
2016-May-24 00:33N 53°25' W 003°00'0 0.0
2016-May-23 23:33N 53°25' W 003°00'0 0.0
2016-May-23 22:33N 53°25' W 003°00'0 0.0
2016-May-23 21:33N 53°25' W 003°00'0 0.0
2016-May-23 20:27N 53°25' W 003°00'0 0.0
2016-May-23 19:33N 53°25' W 003°00'0 0.0
2016-May-23 18:33N 53°25' W 003°00'0 0.0
2016-May-23 17:33N 53°25' W 003°00'0 0.0
2016-May-23 16:30N 53°25' W 003°00'0 0.0
2016-May-23 15:33N 53°25' W 003°00'0 0.0
2016-May-23 14:33N 53°25' W 003°00'0 0.0
2016-May-23 13:30N 53°25' W 003°00'0 0.0
2016-May-23 12:30N 53°25' W 003°00'0 0.0
2016-May-23 11:33N 53°25' W 003°00'0 0.0
2016-May-23 10:33N 53°25' W 003°00'0 0.0
2016-May-23 09:33N 53°25' W 003°00'0 0.0
2016-May-23 08:33N 53°25' W 003°00'0 0.0
2016-May-23 07:33N 53°25' W 003°00'0 0.0
2016-May-23 06:33N 53°25' W 003°00'0 0.0
2016-May-23 05:33N 53°25' W 003°00'0 0.0
2016-May-23 04:33N 53°25' W 003°00'0 0.0
2016-May-23 03:30N 53°25' W 003°00'0 0.0
2016-May-23 02:33N 53°25' W 003°00'0 0.0
2016-May-23 01:33N 53°25' W 003°00'0 0.0
2016-May-23 00:33N 53°25' W 003°00'0 0.0
2016-May-22 23:33N 53°25' W 003°00'0 0.0
2016-May-22 22:33N 53°25' W 003°00'2 1.8
2016-May-22 21:33N 53°27' W 003°01'0 0.5
2016-May-22 20:34N 53°28' W 003°01'2 2.2
2016-May-22 19:32N 53°25' W 003°00'0 0.0
2016-May-22 18:29N 53°25' W 003°00'0 0.0
2016-May-22 17:32N 53°25' W 003°00'0 0.0
2016-May-22 16:32N 53°25' W 003°00'0 0.0
2016-May-22 15:29N 53°25' W 003°00'0 0.0
2016-May-22 14:32N 53°25' W 003°00'0 0.0
2016-May-22 13:31N 53°25' W 003°00'0 0.0
2016-May-22 12:31N 53°25' W 003°00'0 0.0
2016-May-22 11:31N 53°25' W 003°00'1 0.8
2016-May-22 10:31N 53°26' W 003°00'0 0.1
2016-May-22 09:28N 53°26' W 003°01'0 0.5
2016-May-22 08:32N 53°26' W 003°01'3 2.8
2016-May-22 07:33N 53°24' W 003°00'1 0.8
2016-May-22 06:27N 53°23' W 003°00'0 0.0
2016-May-22 05:33N 53°23' W 003°00'0 0.0
2016-May-22 04:30N 53°23' W 003°00'0 0.0
2016-May-22 03:33N 53°23' W 003°00'0 0.0
2016-May-22 02:33N 53°23' W 003°00'0 0.0
2016-May-22 01:33N 53°23' W 003°00'0 0.0
2016-May-22 00:33N 53°23' W 003°00'0 0.0
2016-May-21 23:33N 53°23' W 003°00'0 0.0
2016-May-21 22:33N 53°23' W 003°00'0 0.1
2016-May-21 21:31N 53°23' W 002°60'0 0.1
2016-May-21 20:31N 53°23' W 002°60'0 0.0
2016-May-21 19:31N 53°23' W 002°60'0 0.0
2016-May-21 18:28N 53°23' W 002°60'0 0.0
2016-May-21 17:31N 53°23' W 002°60'0 0.0
2016-May-21 16:31N 53°23' W 002°60'0 0.0
2016-May-21 15:31N 53°23' W 002°60'0 0.0
2016-May-21 14:31N 53°23' W 002°60'  

Dump ship's entire track history